sensor_id;sensor_type;location;lat;lon;timestamp;pressure;altitude;pressure_sealevel;temperature;humidity
27864;BME280;15980;51.092;13.916;2023-10-09T00:03:08;99274.00;;;10.67;95.21
27864;BME280;15980;51.092;13.916;2023-10-09T00:13:08;99259.47;;;10.67;94.92
27864;BME280;15980;51.092;13.916;2023-10-09T00:23:09;99246.56;;;10.67;94.52
27864;BME280;15980;51.092;13.916;2023-10-09T00:33:09;99202.19;;;10.65;93.82
27864;BME280;15980;51.092;13.916;2023-10-09T00:43:10;99176.38;;;10.58;95.48
27864;BME280;15980;51.092;13.916;2023-10-09T00:53:10;99114.59;;;10.52;95.87
27864;BME280;15980;51.092;13.916;2023-10-09T01:03:15;99111.53;;;10.53;95.12
27864;BME280;15980;51.092;13.916;2023-10-09T01:13:16;99152.78;;;10.65;94.64
27864;BME280;15980;51.092;13.916;2023-10-09T01:23:16;99155.00;;;10.72;93.95
27864;BME280;15980;51.092;13.916;2023-10-09T01:33:17;99123.69;;;10.73;94.35
27864;BME280;15980;51.092;13.916;2023-10-09T01:43:17;99094.97;;;10.70;94.61
27864;BME280;15980;51.092;13.916;2023-10-09T01:53:17;99084.97;;;10.66;95.71
27864;BME280;15980;51.092;13.916;2023-10-09T02:03:18;99064.78;;;10.70;95.38
27864;BME280;15980;51.092;13.916;2023-10-09T02:13:18;99033.19;;;10.64;95.61
27864;BME280;15980;51.092;13.916;2023-10-09T02:23:18;99010.94;;;10.57;96.49
27864;BME280;15980;51.092;13.916;2023-10-09T02:33:18;98974.53;;;10.69;96.20
27864;BME280;15980;51.092;13.916;2023-10-09T02:43:19;98952.72;;;10.73;96.56
27864;BME280;15980;51.092;13.916;2023-10-09T02:53:19;98924.72;;;10.79;96.41
27864;BME280;15980;51.092;13.916;2023-10-09T03:03:19;98898.63;;;10.73;95.83
27864;BME280;15980;51.092;13.916;2023-10-09T03:13:19;98862.63;;;10.75;96.31
27864;BME280;15980;51.092;13.916;2023-10-09T03:23:20;98834.63;;;10.81;96.86
27864;BME280;15980;51.092;13.916;2023-10-09T03:33:20;98783.63;;;10.80;97.53
27864;BME280;15980;51.092;13.916;2023-10-09T03:43:20;98777.66;;;10.78;98.08
27864;BME280;15980;51.092;13.916;2023-10-09T03:53:21;98814.41;;;10.86;98.63
27864;BME280;15980;51.092;13.916;2023-10-09T04:03:21;98812.94;;;10.88;100.00
27864;BME280;15980;51.092;13.916;2023-10-09T04:13:21;98808.72;;;11.03;100.00
27864;BME280;15980;51.092;13.916;2023-10-09T04:23:21;98813.53;;;11.06;99.42
27864;BME280;15980;51.092;13.916;2023-10-09T04:33:22;98815.16;;;11.07;99.29
27864;BME280;15980;51.092;13.916;2023-10-09T04:43:22;98823.34;;;10.95;100.00
27864;BME280;15980;51.092;13.916;2023-10-09T04:53:23;98763.19;;;11.02;100.00
27864;BME280;15980;51.092;13.916;2023-10-09T05:03:24;98738.03;;;10.88;100.00
27864;BME280;15980;51.092;13.916;2023-10-09T05:13:29;98734.59;;;10.91;100.00
27864;BME280;15980;51.092;13.916;2023-10-09T05:23:30;98710.47;;;11.09;100.00
27864;BME280;15980;51.092;13.916;2023-10-09T05:33:30;98688.13;;;11.22;100.00
27864;BME280;15980;51.092;13.916;2023-10-09T05:43:30;98679.22;;;11.38;100.00
27864;BME280;15980;51.092;13.916;2023-10-09T05:53:31;98706.19;;;11.60;100.00
27864;BME280;15980;51.092;13.916;2023-10-09T06:03:31;98710.53;;;11.73;100.00
27864;BME280;15980;51.092;13.916;2023-10-09T06:13:32;98706.56;;;11.99;100.00
27864;BME280;15980;51.092;13.916;2023-10-09T06:23:32;98706.50;;;12.23;100.00
27864;BME280;15980;51.092;13.916;2023-10-09T06:33:33;98687.97;;;12.51;100.00
27864;BME280;15980;51.092;13.916;2023-10-09T06:43:33;98699.47;;;12.69;100.00
27864;BME280;15980;51.092;13.916;2023-10-09T06:53:34;98701.25;;;12.93;100.00
27864;BME280;15980;51.092;13.916;2023-10-09T07:03:34;98703.94;;;13.05;100.00
27864;BME280;15980;51.092;13.916;2023-10-09T07:13:34;98719.47;;;13.13;100.00
27864;BME280;15980;51.092;13.916;2023-10-09T07:23:34;98747.28;;;13.08;100.00
27864;BME280;15980;51.092;13.916;2023-10-09T07:33:35;98730.25;;;13.18;100.00
27864;BME280;15980;51.092;13.916;2023-10-09T07:43:36;98743.03;;;13.27;100.00
27864;BME280;15980;51.092;13.916;2023-10-09T07:53:37;98760.38;;;13.27;100.00
27864;BME280;15980;51.092;13.916;2023-10-09T08:03:37;98750.50;;;13.26;100.00
27864;BME280;15980;51.092;13.916;2023-10-09T08:13:37;98772.72;;;13.33;100.00
27864;BME280;15980;51.092;13.916;2023-10-09T08:23:38;98767.44;;;13.44;100.00
27864;BME280;15980;51.092;13.916;2023-10-09T08:33:38;98775.28;;;13.42;100.00
27864;BME280;15980;51.092;13.916;2023-10-09T08:43:39;98775.03;;;13.47;100.00
27864;BME280;15980;51.092;13.916;2023-10-09T08:53:41;98789.06;;;13.42;100.00
27864;BME280;15980;51.092;13.916;2023-10-09T09:03:42;98797.34;;;13.42;100.00
27864;BME280;15980;51.092;13.916;2023-10-09T09:13:44;98769.88;;;13.30;100.00
27864;BME280;15980;51.092;13.916;2023-10-09T09:23:56;98777.69;;;13.43;100.00
27864;BME280;15980;51.092;13.916;2023-10-09T09:33:57;98791.38;;;13.40;100.00
27864;BME280;15980;51.092;13.916;2023-10-09T09:43:58;98775.56;;;13.37;100.00
27864;BME280;15980;51.092;13.916;2023-10-09T09:53:58;98770.00;;;13.68;100.00
27864;BME280;15980;51.092;13.916;2023-10-09T10:04:09;98777.22;;;13.73;100.00
27864;BME280;15980;51.092;13.916;2023-10-09T10:14:14;98758.56;;;13.86;100.00
27864;BME280;15980;51.092;13.916;2023-10-09T10:34:53;98791.03;;;13.57;100.00
27864;BME280;15980;51.092;13.916;2023-10-09T10:44:54;98759.44;;;13.70;100.00
27864;BME280;15980;51.092;13.916;2023-10-09T10:55:09;98767.69;;;13.70;100.00
27864;BME280;15980;51.092;13.916;2023-10-09T11:05:09;98746.84;;;13.54;100.00
27864;BME280;15980;51.092;13.916;2023-10-09T11:15:10;98739.31;;;13.70;100.00
27864;BME280;15980;51.092;13.916;2023-10-09T11:25:11;98736.00;;;13.80;100.00
27864;BME280;15980;51.092;13.916;2023-10-09T11:35:13;98719.78;;;14.13;100.00
27864;BME280;15980;51.092;13.916;2023-10-09T11:45:25;98738.91;;;13.87;100.00
27864;BME280;15980;51.092;13.916;2023-10-09T11:55:25;98727.69;;;13.96;100.00
27864;BME280;15980;51.092;13.916;2023-10-09T12:05:25;98713.22;;;14.41;100.00
27864;BME280;15980;51.092;13.916;2023-10-09T12:15:26;98716.72;;;14.19;100.00
27864;BME280;15980;51.092;13.916;2023-10-09T12:25:26;98718.56;;;14.50;100.00
27864;BME280;15980;51.092;13.916;2023-10-09T12:35:27;98727.31;;;13.97;100.00
27864;BME280;15980;51.092;13.916;2023-10-09T12:45:27;98721.88;;;14.01;100.00
27864;BME280;15980;51.092;13.916;2023-10-09T12:55:30;98721.66;;;13.90;100.00
27864;BME280;15980;51.092;13.916;2023-10-09T13:05:30;98715.50;;;13.62;100.00
27864;BME280;15980;51.092;13.916;2023-10-09T13:15:31;98709.94;;;13.77;100.00
27864;BME280;15980;51.092;13.916;2023-10-09T13:25:31;98712.09;;;13.68;100.00
27864;BME280;15980;51.092;13.916;2023-10-09T13:35:31;98708.06;;;13.81;100.00
27864;BME280;15980;51.092;13.916;2023-10-09T13:45:31;98699.72;;;13.78;100.00
27864;BME280;15980;51.092;13.916;2023-10-09T13:55:37;98710.72;;;13.94;100.00
27864;BME280;15980;51.092;13.916;2023-10-09T14:05:37;98700.91;;;13.96;100.00
27864;BME280;15980;51.092;13.916;2023-10-09T14:15:38;98710.13;;;14.04;100.00
27864;BME280;15980;51.092;13.916;2023-10-09T14:25:38;98713.97;;;13.99;100.00
27864;BME280;15980;51.092;13.916;2023-10-09T14:35:44;98694.44;;;13.89;100.00
27864;BME280;15980;51.092;13.916;2023-10-09T14:45:50;98716.81;;;14.03;100.00
27864;BME280;15980;51.092;13.916;2023-10-09T14:55:54;98708.66;;;13.91;100.00
27864;BME280;15980;51.092;13.916;2023-10-09T15:05:54;98714.19;;;13.91;100.00
27864;BME280;15980;51.092;13.916;2023-10-09T15:15:55;98720.69;;;13.82;100.00
27864;BME280;15980;51.092;13.916;2023-10-09T15:25:55;98728.41;;;13.93;100.00
27864;BME280;15980;51.092;13.916;2023-10-09T15:35:55;98735.47;;;14.09;100.00
27864;BME280;15980;51.092;13.916;2023-10-09T15:45:56;98735.16;;;13.95;100.00
27864;BME280;15980;51.092;13.916;2023-10-09T15:55:56;98752.38;;;13.89;100.00
27864;BME280;15980;51.092;13.916;2023-10-09T16:05:57;98752.69;;;13.87;100.00
27864;BME280;15980;51.092;13.916;2023-10-09T16:15:59;98757.03;;;13.69;100.00
27864;BME280;15980;51.092;13.916;2023-10-09T16:25:59;98760.34;;;13.94;100.00
27864;BME280;15980;51.092;13.916;2023-10-09T16:35:59;98759.13;;;13.91;100.00
27864;BME280;15980;51.092;13.916;2023-10-09T16:46:01;98754.84;;;13.94;100.00
27864;BME280;15980;51.092;13.916;2023-10-09T16:56:04;98781.13;;;14.07;100.00
27864;BME280;15980;51.092;13.916;2023-10-09T17:06:05;98787.38;;;14.04;100.00
27864;BME280;15980;51.092;13.916;2023-10-09T17:16:11;98794.00;;;14.19;100.00
27864;BME280;15980;51.092;13.916;2023-10-09T17:26:12;98784.63;;;14.23;100.00
27864;BME280;15980;51.092;13.916;2023-10-09T17:36:12;98781.34;;;14.18;100.00
27864;BME280;15980;51.092;13.916;2023-10-09T17:46:13;98794.84;;;14.23;100.00
27864;BME280;15980;51.092;13.916;2023-10-09T17:56:13;98775.97;;;14.25;100.00
27864;BME280;15980;51.092;13.916;2023-10-09T18:06:13;98787.66;;;14.18;100.00
27864;BME280;15980;51.092;13.916;2023-10-09T18:16:14;98794.50;;;14.24;100.00
27864;BME280;15980;51.092;13.916;2023-10-09T18:26:14;98787.34;;;14.39;100.00
27864;BME280;15980;51.092;13.916;2023-10-09T18:36:14;98791.56;;;14.52;100.00
27864;BME280;15980;51.092;13.916;2023-10-09T18:46:15;98784.31;;;14.44;100.00
27864;BME280;15980;51.092;13.916;2023-10-09T18:56:16;98796.78;;;14.57;100.00
27864;BME280;15980;51.092;13.916;2023-10-09T19:06:17;98793.00;;;14.65;100.00
27864;BME280;15980;51.092;13.916;2023-10-09T19:16:17;98793.38;;;14.64;100.00
27864;BME280;15980;51.092;13.916;2023-10-09T19:26:17;98796.56;;;14.66;100.00
27864;BME280;15980;51.092;13.916;2023-10-09T19:36:18;98793.44;;;14.67;100.00
27864;BME280;15980;51.092;13.916;2023-10-09T19:46:18;98788.88;;;14.75;100.00
27864;BME280;15980;51.092;13.916;2023-10-09T19:56:19;98809.00;;;14.75;100.00
27864;BME280;15980;51.092;13.916;2023-10-09T20:06:19;98806.13;;;14.91;100.00
27864;BME280;15980;51.092;13.916;2023-10-09T20:16:19;98812.59;;;14.99;100.00
27864;BME280;15980;51.092;13.916;2023-10-09T20:26:20;98821.25;;;14.97;100.00
27864;BME280;15980;51.092;13.916;2023-10-09T20:36:20;98828.06;;;15.03;100.00
27864;BME280;15980;51.092;13.916;2023-10-09T20:46:20;98833.72;;;15.11;100.00
27864;BME280;15980;51.092;13.916;2023-10-09T20:56:24;98855.78;;;15.07;100.00
27864;BME280;15980;51.092;13.916;2023-10-09T21:06:24;98864.06;;;15.07;100.00
27864;BME280;15980;51.092;13.916;2023-10-09T21:16:24;98869.53;;;15.03;100.00
27864;BME280;15980;51.092;13.916;2023-10-09T21:26:25;98870.91;;;14.94;100.00
27864;BME280;15980;51.092;13.916;2023-10-09T21:36:25;98866.94;;;15.14;100.00
27864;BME280;15980;51.092;13.916;2023-10-09T21:46:25;98880.13;;;15.01;100.00
27864;BME280;15980;51.092;13.916;2023-10-09T21:56:25;98871.97;;;15.08;100.00
27864;BME280;15980;51.092;13.916;2023-10-09T22:06:26;98880.28;;;15.08;100.00
27864;BME280;15980;51.092;13.916;2023-10-09T22:16:26;98877.81;;;15.03;100.00
27864;BME280;15980;51.092;13.916;2023-10-09T22:26:26;98882.09;;;15.01;100.00
27864;BME280;15980;51.092;13.916;2023-10-09T22:36:27;98881.91;;;14.90;100.00
27864;BME280;15980;51.092;13.916;2023-10-09T22:46:27;98882.47;;;14.99;100.00
27864;BME280;15980;51.092;13.916;2023-10-09T22:56:27;98887.44;;;14.90;100.00
27864;BME280;15980;51.092;13.916;2023-10-09T23:06:27;98890.81;;;15.03;100.00
27864;BME280;15980;51.092;13.916;2023-10-09T23:16:28;98888.44;;;15.01;100.00
27864;BME280;15980;51.092;13.916;2023-10-09T23:26:28;98911.28;;;14.79;100.00
27864;BME280;15980;51.092;13.916;2023-10-09T23:36:28;98920.38;;;14.80;100.00
27864;BME280;15980;51.092;13.916;2023-10-09T23:46:29;98932.03;;;14.73;100.00
27864;BME280;15980;51.092;13.916;2023-10-09T23:56:29;98935.53;;;14.70;100.00
